createdAt,value
2019-01-31T00:00:07.049Z,969.32
2019-01-31T00:01:07.042Z,969.29
2019-01-31T00:02:07.229Z,969.26
2019-01-31T00:03:07.017Z,969.28
2019-01-31T00:04:07.063Z,969.29
2019-01-31T00:05:07.005Z,969.30
2019-01-31T00:06:06.983Z,969.32
2019-01-31T00:07:06.976Z,969.30
2019-01-31T00:08:07.072Z,969.35
2019-01-31T00:09:06.974Z,969.37
2019-01-31T00:10:06.966Z,969.34
2019-01-31T00:11:06.934Z,969.38
2019-01-31T00:12:06.937Z,969.37
2019-01-31T00:13:06.977Z,969.31
2019-01-31T00:14:06.926Z,969.34
2019-01-31T00:15:06.916Z,969.37
2019-01-31T00:16:06.884Z,969.38
2019-01-31T00:17:06.895Z,969.37
2019-01-31T00:18:06.866Z,969.36
2019-01-31T00:19:06.846Z,969.37
2019-01-31T00:20:06.845Z,969.35
2019-01-31T00:21:06.848Z,969.38
2019-01-31T00:22:06.820Z,969.33
2019-01-31T00:23:06.838Z,969.40
2019-01-31T00:24:06.808Z,969.38
2019-01-31T00:25:06.787Z,969.42
2019-01-31T00:26:06.776Z,969.41
2019-01-31T00:27:06.763Z,969.35
2019-01-31T00:28:06.768Z,969.38
2019-01-31T00:29:06.796Z,969.42
2019-01-31T00:30:06.736Z,969.38
2019-01-31T00:31:06.731Z,969.42
2019-01-31T00:32:06.719Z,969.41
2019-01-31T00:33:06.722Z,969.41
2019-01-31T00:34:06.711Z,969.44
2019-01-31T00:35:06.695Z,969.43
2019-01-31T00:36:06.712Z,969.44
2019-01-31T00:37:06.665Z,969.40
2019-01-31T00:38:06.683Z,969.49
2019-01-31T00:39:06.641Z,969.51
2019-01-31T00:40:06.636Z,969.48
2019-01-31T00:41:06.622Z,969.54
2019-01-31T00:42:06.610Z,969.50
2019-01-31T00:43:06.653Z,969.54
2019-01-31T00:44:06.587Z,969.55
2019-01-31T00:45:06.597Z,969.54
2019-01-31T00:46:06.574Z,969.58
2019-01-31T00:47:06.586Z,969.57
2019-01-31T00:48:06.586Z,969.56
2019-01-31T00:49:06.574Z,969.58
2019-01-31T00:50:06.525Z,969.62
2019-01-31T00:51:06.530Z,969.67
2019-01-31T00:52:06.514Z,969.65
2019-01-31T00:53:06.564Z,969.66
2019-01-31T00:54:06.496Z,969.69
2019-01-31T00:55:06.484Z,969.68
2019-01-31T00:56:06.468Z,969.66
2019-01-31T00:57:06.500Z,969.72
2019-01-31T00:58:06.450Z,969.69
2019-01-31T00:59:06.446Z,969.72
2019-01-31T01:00:06.429Z,969.68
2019-01-31T01:01:06.425Z,969.69
2019-01-31T01:02:06.418Z,969.76
2019-01-31T01:03:06.449Z,969.77
2019-01-31T01:04:06.383Z,969.74
2019-01-31T01:05:06.385Z,969.75
2019-01-31T01:06:06.383Z,969.74
2019-01-31T01:07:06.360Z,969.75
2019-01-31T01:08:06.351Z,969.73
2019-01-31T01:09:07.717Z,969.74
2019-01-31T01:10:06.343Z,969.76
2019-01-31T01:11:06.336Z,969.77
2019-01-31T01:12:06.301Z,969.80
2019-01-31T01:13:06.303Z,969.78
2019-01-31T01:14:06.302Z,969.72
2019-01-31T01:15:06.285Z,969.79
2019-01-31T01:16:06.260Z,969.76
2019-01-31T01:17:06.248Z,969.84
2019-01-31T01:18:06.241Z,969.76
2019-01-31T01:19:06.280Z,969.82
2019-01-31T01:20:06.225Z,969.80
2019-01-31T01:21:06.199Z,969.78
2019-01-31T01:22:06.260Z,969.84
2019-01-31T01:23:06.222Z,969.84
2019-01-31T01:24:06.179Z,969.83
2019-01-31T01:25:06.185Z,969.82
2019-01-31T01:26:06.215Z,969.85
2019-01-31T01:27:06.204Z,969.89
2019-01-31T01:28:06.147Z,969.90
2019-01-31T01:29:06.125Z,969.87
2019-01-31T01:30:06.135Z,969.87
2019-01-31T01:31:06.123Z,969.93
2019-01-31T01:32:06.111Z,969.93
2019-01-31T01:33:06.078Z,969.95
2019-01-31T01:34:06.134Z,969.93
2019-01-31T01:35:06.070Z,969.96
2019-01-31T01:36:06.042Z,969.98
2019-01-31T01:37:06.068Z,969.94
2019-01-31T01:38:06.030Z,969.95
2019-01-31T01:39:06.014Z,970.00
2019-01-31T01:40:06.013Z,969.97
2019-01-31T01:41:06.035Z,969.95
2019-01-31T01:42:06.014Z,969.95
2019-01-31T01:43:06.013Z,969.94
2019-01-31T01:44:05.996Z,969.90
2019-01-31T01:45:05.954Z,969.89
2019-01-31T01:46:05.945Z,969.87
2019-01-31T01:47:05.946Z,969.89
2019-01-31T01:48:06.224Z,969.90
2019-01-31T01:49:05.980Z,969.92
2019-01-31T01:50:05.940Z,969.98
2019-01-31T01:51:05.894Z,969.93
2019-01-31T01:52:05.878Z,969.94
2019-01-31T01:53:05.866Z,969.98
2019-01-31T01:54:05.865Z,969.98
2019-01-31T01:55:05.924Z,969.96
2019-01-31T01:56:05.840Z,969.94
2019-01-31T01:57:05.828Z,969.95
2019-01-31T01:58:05.819Z,969.95
2019-01-31T01:59:05.821Z,969.95
2019-01-31T02:00:05.808Z,969.95
2019-01-31T02:01:05.813Z,969.93
2019-01-31T02:02:05.843Z,969.93
2019-01-31T02:03:05.814Z,969.90
2019-01-31T02:04:05.769Z,969.87
2019-01-31T02:05:05.769Z,969.94
2019-01-31T02:06:05.734Z,969.86
2019-01-31T02:07:05.738Z,969.86
2019-01-31T02:08:05.733Z,969.83
2019-01-31T02:09:05.723Z,969.77
2019-01-31T02:10:05.695Z,969.77
2019-01-31T02:11:05.676Z,969.79
2019-01-31T02:12:05.674Z,969.72
2019-01-31T02:13:05.730Z,969.73
2019-01-31T02:14:05.674Z,969.64
2019-01-31T02:15:05.641Z,969.67
2019-01-31T02:16:05.634Z,969.67
2019-01-31T02:17:05.626Z,969.64
2019-01-31T02:18:05.606Z,969.70
2019-01-31T02:19:05.648Z,969.66
2019-01-31T02:20:05.583Z,969.68
2019-01-31T02:21:05.582Z,969.65
2019-01-31T02:22:05.629Z,969.64
2019-01-31T02:23:05.553Z,969.64
2019-01-31T02:24:05.547Z,969.63
2019-01-31T02:25:05.581Z,969.64
2019-01-31T02:26:05.539Z,969.69
2019-01-31T02:27:05.515Z,969.68
2019-01-31T02:28:05.506Z,969.66
2019-01-31T02:29:05.493Z,969.67
2019-01-31T02:30:05.599Z,969.67
2019-01-31T02:31:05.510Z,969.70
2019-01-31T02:32:05.464Z,969.69
2019-01-31T02:33:05.449Z,969.71
2019-01-31T02:34:05.444Z,969.67
2019-01-31T02:35:05.459Z,969.70
2019-01-31T02:36:05.428Z,969.65
2019-01-31T02:37:05.449Z,969.65
2019-01-31T02:38:05.399Z,969.64
2019-01-31T02:39:05.388Z,969.65
2019-01-31T02:40:05.396Z,969.67
2019-01-31T02:41:05.371Z,969.62
2019-01-31T02:42:05.367Z,969.62
2019-01-31T02:43:05.367Z,969.61
2019-01-31T02:44:05.340Z,969.59
2019-01-31T02:45:05.324Z,969.62
2019-01-31T02:46:05.343Z,969.65
2019-01-31T02:47:05.308Z,969.61
2019-01-31T02:48:05.298Z,969.59
2019-01-31T02:49:05.321Z,969.60
2019-01-31T02:50:05.280Z,969.57
2019-01-31T02:51:05.266Z,969.53
2019-01-31T02:52:05.278Z,969.52
2019-01-31T02:53:05.244Z,969.54
2019-01-31T02:54:05.233Z,969.53
2019-01-31T02:55:05.238Z,969.53
2019-01-31T02:56:05.214Z,969.53
2019-01-31T02:57:05.258Z,969.53
2019-01-31T02:58:05.216Z,969.58
2019-01-31T02:59:05.185Z,969.58
2019-01-31T03:00:05.175Z,969.51
2019-01-31T03:01:05.181Z,969.56
2019-01-31T03:02:05.181Z,969.58
2019-01-31T03:03:05.142Z,969.58
2019-01-31T03:04:05.153Z,969.58
2019-01-31T03:05:05.114Z,969.59
2019-01-31T03:06:05.108Z,969.56
2019-01-31T03:07:05.115Z,969.58
2019-01-31T03:08:05.117Z,969.59
2019-01-31T03:09:05.081Z,969.58
2019-01-31T03:10:05.077Z,969.56
2019-01-31T03:11:05.075Z,969.54
2019-01-31T03:12:05.043Z,969.59
2019-01-31T03:13:05.040Z,969.58
2019-01-31T03:14:10.372Z,969.57
2019-01-31T03:15:06.028Z,969.57
2019-01-31T03:16:05.031Z,969.56
2019-01-31T03:17:04.987Z,969.54
2019-01-31T03:18:04.989Z,969.57
2019-01-31T03:19:04.964Z,969.60
2019-01-31T03:20:04.999Z,969.56
2019-01-31T03:21:04.947Z,969.58
2019-01-31T03:22:04.959Z,969.57
2019-01-31T03:23:04.922Z,969.60
2019-01-31T03:24:04.942Z,969.56
2019-01-31T03:25:04.899Z,969.51
2019-01-31T03:26:04.916Z,969.53
2019-01-31T03:27:04.882Z,969.54
2019-01-31T03:28:04.892Z,969.55
2019-01-31T03:29:04.866Z,969.54
2019-01-31T03:30:04.882Z,969.54
2019-01-31T03:31:04.841Z,969.51
2019-01-31T03:32:04.848Z,969.52
2019-01-31T03:33:04.834Z,969.51
2019-01-31T03:34:05.170Z,969.48
2019-01-31T03:35:04.801Z,969.53
2019-01-31T03:36:04.797Z,969.54
2019-01-31T03:37:04.781Z,969.56
2019-01-31T03:38:04.776Z,969.54
2019-01-31T03:39:04.758Z,969.54
2019-01-31T03:40:07.135Z,969.56
2019-01-31T03:41:04.738Z,969.53
2019-01-31T03:42:04.730Z,969.52
2019-01-31T03:43:04.716Z,969.51
2019-01-31T03:44:04.770Z,969.53
2019-01-31T03:45:04.702Z,969.53
2019-01-31T03:46:04.710Z,969.52
2019-01-31T03:47:04.692Z,969.50
2019-01-31T03:48:04.668Z,969.47
2019-01-31T03:49:04.727Z,969.49
2019-01-31T03:50:06.761Z,969.45
2019-01-31T03:51:04.635Z,969.47
2019-01-31T03:52:04.629Z,969.50
2019-01-31T03:53:04.661Z,969.50
2019-01-31T03:54:04.631Z,969.49
2019-01-31T03:55:04.647Z,969.48
2019-01-31T03:56:05.220Z,969.51
2019-01-31T03:57:04.575Z,969.50
2019-01-31T03:58:04.572Z,969.51
2019-01-31T03:59:04.562Z,969.48
2019-01-31T04:00:04.553Z,969.46
2019-01-31T04:01:04.638Z,969.44
2019-01-31T04:02:04.518Z,969.43
2019-01-31T04:03:04.500Z,969.44
2019-01-31T04:04:04.547Z,969.41
2019-01-31T04:05:04.545Z,969.44
2019-01-31T04:06:04.529Z,969.39
2019-01-31T04:07:04.502Z,969.39
2019-01-31T04:08:04.455Z,969.41
2019-01-31T04:09:04.448Z,969.46
2019-01-31T04:10:04.441Z,969.45
2019-01-31T04:11:04.454Z,969.45
2019-01-31T04:12:04.436Z,969.46
2019-01-31T04:13:04.438Z,969.50
2019-01-31T04:14:04.400Z,969.48
2019-01-31T04:15:04.400Z,969.48
2019-01-31T04:16:04.422Z,969.50
2019-01-31T04:17:04.365Z,969.45
2019-01-31T04:18:04.362Z,969.47
2019-01-31T04:19:04.394Z,969.48
2019-01-31T04:20:04.352Z,969.51
2019-01-31T04:21:04.330Z,969.52
2019-01-31T04:22:04.341Z,969.54
2019-01-31T04:23:04.406Z,969.58
2019-01-31T04:24:04.283Z,969.56
2019-01-31T04:25:04.324Z,969.59
2019-01-31T04:26:04.312Z,969.58
2019-01-31T04:27:04.254Z,969.55
2019-01-31T04:28:04.255Z,969.57
2019-01-31T04:29:04.240Z,969.59
2019-01-31T04:30:04.265Z,969.58
2019-01-31T04:31:04.224Z,969.54
2019-01-31T04:32:04.256Z,969.55
2019-01-31T04:33:04.216Z,969.54
2019-01-31T04:34:04.178Z,969.53
2019-01-31T04:35:04.189Z,969.53
2019-01-31T04:36:04.204Z,969.48
2019-01-31T04:37:04.156Z,969.50
2019-01-31T04:38:04.181Z,969.50
2019-01-31T04:39:04.152Z,969.49
2019-01-31T04:40:04.151Z,969.49
2019-01-31T04:41:04.159Z,969.54
2019-01-31T04:42:04.140Z,969.52
2019-01-31T04:43:04.119Z,969.51
2019-01-31T04:44:04.090Z,969.51
2019-01-31T04:45:04.155Z,969.49
2019-01-31T04:46:04.167Z,969.47
2019-01-31T04:47:04.073Z,969.51
2019-01-31T04:48:04.059Z,969.46
2019-01-31T04:49:04.028Z,969.47
2019-01-31T04:50:04.055Z,969.52
2019-01-31T04:51:04.086Z,969.50
2019-01-31T04:52:04.017Z,969.49
2019-01-31T04:53:03.995Z,969.50
2019-01-31T04:54:04.032Z,969.48
2019-01-31T04:55:03.968Z,969.50
2019-01-31T04:56:04.057Z,969.55
2019-01-31T04:57:03.954Z,969.55
2019-01-31T04:58:04.166Z,969.54
2019-01-31T04:59:03.932Z,969.54
2019-01-31T05:00:03.911Z,969.53
2019-01-31T05:01:03.909Z,969.52
2019-01-31T05:02:03.907Z,969.54
2019-01-31T05:03:03.889Z,969.54
2019-01-31T05:04:03.897Z,969.55
2019-01-31T05:05:03.881Z,969.55
2019-01-31T05:06:03.855Z,969.50
2019-01-31T05:07:03.845Z,969.54
2019-01-31T05:08:03.832Z,969.52
2019-01-31T05:09:03.823Z,969.49
2019-01-31T05:10:03.852Z,969.53
2019-01-31T05:11:03.801Z,969.50
2019-01-31T05:12:03.811Z,969.52
2019-01-31T05:13:03.779Z,969.54
2019-01-31T05:14:03.776Z,969.56
2019-01-31T05:15:03.765Z,969.59
2019-01-31T05:16:04.126Z,969.56
2019-01-31T05:17:03.739Z,969.55
2019-01-31T05:18:03.726Z,969.53
2019-01-31T05:19:03.941Z,969.55
2019-01-31T05:20:03.704Z,969.50
2019-01-31T05:21:03.834Z,969.49
2019-01-31T05:22:03.722Z,969.51
2019-01-31T05:23:03.684Z,969.50
2019-01-31T05:24:03.669Z,969.54
2019-01-31T05:25:03.653Z,969.54
2019-01-31T05:26:03.645Z,969.58
2019-01-31T05:27:04.517Z,969.55
2019-01-31T05:28:03.641Z,969.48
2019-01-31T05:29:03.680Z,969.52
2019-01-31T05:30:03.627Z,969.52
2019-01-31T05:31:03.592Z,969.57
2019-01-31T05:32:03.587Z,969.57
2019-01-31T05:33:03.578Z,969.55
2019-01-31T05:34:03.608Z,969.57
2019-01-31T05:35:03.553Z,969.55
2019-01-31T05:36:03.547Z,969.51
2019-01-31T05:37:03.687Z,969.51
2019-01-31T05:38:03.520Z,969.51
2019-01-31T05:39:03.524Z,969.52
2019-01-31T05:40:03.554Z,969.50
2019-01-31T05:41:03.521Z,969.50
2019-01-31T05:42:03.522Z,969.52
2019-01-31T05:43:03.475Z,969.52
2019-01-31T05:44:03.497Z,969.50
2019-01-31T05:45:03.498Z,969.48
2019-01-31T05:46:03.442Z,969.49
2019-01-31T05:47:03.437Z,969.49
2019-01-31T05:48:03.422Z,969.50
2019-01-31T05:49:03.409Z,969.49
2019-01-31T05:50:03.417Z,969.47
2019-01-31T05:51:03.385Z,969.50
2019-01-31T05:52:03.401Z,969.54
2019-01-31T05:53:03.405Z,969.55
2019-01-31T05:54:03.360Z,969.50
2019-01-31T05:55:03.360Z,969.53
2019-01-31T05:56:03.375Z,969.52
2019-01-31T05:57:03.345Z,969.54
2019-01-31T05:58:03.344Z,969.52
2019-01-31T05:59:05.710Z,969.56
2019-01-31T06:00:03.328Z,969.61
2019-01-31T06:01:03.292Z,969.55
2019-01-31T06:02:03.311Z,969.65
2019-01-31T06:03:03.275Z,969.62
2019-01-31T06:04:03.260Z,969.61
2019-01-31T06:05:03.266Z,969.60
2019-01-31T06:06:03.235Z,969.66
2019-01-31T06:07:11.008Z,969.66
2019-01-31T06:08:04.239Z,969.67
2019-01-31T06:09:03.208Z,969.67
2019-01-31T06:10:03.250Z,969.68
2019-01-31T06:11:07.758Z,969.72
2019-01-31T06:12:03.191Z,969.67
2019-01-31T06:13:03.163Z,969.65
2019-01-31T06:14:03.218Z,969.68
2019-01-31T06:15:03.148Z,969.66
2019-01-31T06:16:03.156Z,969.67
2019-01-31T06:17:03.185Z,969.69
2019-01-31T06:18:03.181Z,969.70
2019-01-31T06:19:03.135Z,969.75
2019-01-31T06:20:03.151Z,969.71
2019-01-31T06:21:03.092Z,969.72
2019-01-31T06:22:03.080Z,969.65
2019-01-31T06:23:03.071Z,969.69
2019-01-31T06:24:03.045Z,969.66
2019-01-31T06:25:03.076Z,969.69
2019-01-31T06:26:03.049Z,969.68
2019-01-31T06:27:03.113Z,969.64
2019-01-31T06:28:03.012Z,969.65
2019-01-31T06:29:02.995Z,969.62
2019-01-31T06:30:02.985Z,969.65
2019-01-31T06:31:02.999Z,969.62
2019-01-31T06:32:02.975Z,969.63
2019-01-31T06:33:02.957Z,969.63
2019-01-31T06:34:02.946Z,969.65
2019-01-31T06:35:02.971Z,969.60
2019-01-31T06:36:02.975Z,969.61
2019-01-31T06:37:02.931Z,969.57
2019-01-31T06:38:02.930Z,969.60
2019-01-31T06:39:02.918Z,969.60
2019-01-31T06:40:02.884Z,969.59
2019-01-31T06:41:02.883Z,969.65
2019-01-31T06:42:02.871Z,969.64
2019-01-31T06:43:02.894Z,969.66
2019-01-31T06:44:03.121Z,969.63
2019-01-31T06:45:02.834Z,969.64
2019-01-31T06:46:02.854Z,969.63
2019-01-31T06:47:02.886Z,969.65
2019-01-31T06:48:05.140Z,969.64
2019-01-31T06:49:02.863Z,969.59
2019-01-31T06:50:02.874Z,969.61
2019-01-31T06:51:02.858Z,969.60
2019-01-31T06:52:02.784Z,969.64
2019-01-31T06:53:02.809Z,969.63
2019-01-31T06:54:02.748Z,969.67
2019-01-31T06:55:02.815Z,969.65
2019-01-31T06:56:02.802Z,969.69
2019-01-31T06:57:02.781Z,969.68
2019-01-31T06:58:02.703Z,969.71
2019-01-31T06:59:02.690Z,969.68
2019-01-31T07:00:02.680Z,969.72
2019-01-31T07:01:02.714Z,969.71
2019-01-31T07:02:02.705Z,969.69
2019-01-31T07:03:02.680Z,969.71
2019-01-31T07:04:02.675Z,969.71
2019-01-31T07:05:02.625Z,969.72
2019-01-31T07:06:02.642Z,969.77
2019-01-31T07:07:02.614Z,969.78
2019-01-31T07:08:04.720Z,969.77
2019-01-31T07:09:02.602Z,969.72
2019-01-31T07:10:02.575Z,969.72
2019-01-31T07:11:02.596Z,969.77
2019-01-31T07:12:03.197Z,969.74
2019-01-31T07:13:02.550Z,969.79
2019-01-31T07:14:02.537Z,969.75
2019-01-31T07:15:02.520Z,969.77
2019-01-31T07:16:02.510Z,969.83
2019-01-31T07:17:02.542Z,969.91
2019-01-31T07:18:02.533Z,969.87
2019-01-31T07:19:02.500Z,969.86
2019-01-31T07:20:02.475Z,969.85
2019-01-31T07:21:02.464Z,969.90
2019-01-31T07:22:02.485Z,969.90
2019-01-31T07:23:02.463Z,969.89
2019-01-31T07:24:02.429Z,969.91
2019-01-31T07:25:02.438Z,969.94
2019-01-31T07:26:02.416Z,969.98
2019-01-31T07:27:02.582Z,969.96
2019-01-31T07:28:02.441Z,969.94
2019-01-31T07:29:02.399Z,969.93
2019-01-31T07:30:02.368Z,969.96
2019-01-31T07:31:02.363Z,969.95
2019-01-31T07:32:03.683Z,969.95
2019-01-31T07:33:02.353Z,969.95
2019-01-31T07:34:02.329Z,969.99
2019-01-31T07:35:02.334Z,969.99
2019-01-31T07:36:02.308Z,970.01
2019-01-31T07:37:02.306Z,970.00
2019-01-31T07:38:02.377Z,970.01
2019-01-31T07:39:02.274Z,970.00
2019-01-31T07:40:02.291Z,970.04
2019-01-31T07:41:02.291Z,970.07
2019-01-31T07:42:02.261Z,970.06
2019-01-31T07:43:02.233Z,970.10
2019-01-31T07:44:02.228Z,970.09
2019-01-31T07:45:02.216Z,970.10
2019-01-31T07:46:02.220Z,970.12
2019-01-31T07:47:02.195Z,970.15
2019-01-31T07:48:02.215Z,970.15
2019-01-31T07:49:02.176Z,970.11
2019-01-31T07:50:02.166Z,970.13
2019-01-31T07:51:02.173Z,970.13
2019-01-31T07:52:02.174Z,970.12
2019-01-31T07:53:02.143Z,970.18
2019-01-31T07:54:02.129Z,970.19
2019-01-31T07:55:02.375Z,970.19
2019-01-31T07:56:02.147Z,970.20
2019-01-31T07:57:02.110Z,970.19
2019-01-31T07:58:02.147Z,970.20
2019-01-31T07:59:02.076Z,970.15
2019-01-31T08:00:02.702Z,970.21
2019-01-31T08:01:02.042Z,970.21
2019-01-31T08:02:02.118Z,970.20
2019-01-31T08:03:02.084Z,970.19
2019-01-31T08:04:02.867Z,970.26
2019-01-31T08:05:02.103Z,970.21
2019-01-31T08:06:02.001Z,970.17
2019-01-31T08:07:01.997Z,970.21
2019-01-31T08:08:01.989Z,970.18
2019-01-31T08:09:01.975Z,970.16
2019-01-31T08:10:01.957Z,970.19
2019-01-31T08:11:02.015Z,970.21
2019-01-31T08:12:01.945Z,970.23
2019-01-31T08:13:01.932Z,970.26
2019-01-31T08:14:01.968Z,970.20
2019-01-31T08:15:01.908Z,970.25
2019-01-31T08:16:01.928Z,970.25
2019-01-31T08:17:01.882Z,970.22
2019-01-31T08:18:01.928Z,970.26
2019-01-31T08:19:01.856Z,970.29
2019-01-31T08:20:01.868Z,970.31
2019-01-31T08:21:01.856Z,970.29
2019-01-31T08:22:01.888Z,970.29
2019-01-31T08:23:01.933Z,970.32
2019-01-31T08:24:01.817Z,970.29
2019-01-31T08:25:01.821Z,970.31
2019-01-31T08:26:01.804Z,970.27
2019-01-31T08:27:01.847Z,970.32
2019-01-31T08:28:01.758Z,970.32
2019-01-31T08:29:01.757Z,970.33
2019-01-31T08:30:01.737Z,970.31
2019-01-31T08:31:01.732Z,970.32
2019-01-31T08:32:01.805Z,970.31
2019-01-31T08:33:02.715Z,970.30
2019-01-31T08:34:01.706Z,970.32
2019-01-31T08:35:01.695Z,970.35
2019-01-31T08:36:01.681Z,970.28
2019-01-31T08:37:01.668Z,970.27
2019-01-31T08:38:01.708Z,970.27
2019-01-31T08:39:01.668Z,970.26
2019-01-31T08:40:01.703Z,970.23
2019-01-31T08:41:01.626Z,970.24
2019-01-31T08:42:03.797Z,970.23
2019-01-31T08:43:01.640Z,970.29
2019-01-31T08:44:01.680Z,970.28
2019-01-31T08:45:01.603Z,970.27
2019-01-31T08:46:01.571Z,970.29
2019-01-31T08:47:01.569Z,970.32
2019-01-31T08:48:01.586Z,970.29
2019-01-31T08:49:01.547Z,970.29
2019-01-31T08:50:01.889Z,970.26
2019-01-31T08:51:01.591Z,970.26
2019-01-31T08:52:01.537Z,970.25
2019-01-31T08:53:01.561Z,970.27
2019-01-31T08:54:01.523Z,970.28
2019-01-31T08:55:01.474Z,970.24
2019-01-31T08:56:01.488Z,970.26
2019-01-31T08:57:01.470Z,970.31
2019-01-31T08:58:01.472Z,970.27
2019-01-31T08:59:01.497Z,970.28
2019-01-31T09:00:01.423Z,970.26
2019-01-31T09:01:01.456Z,970.24
2019-01-31T09:02:02.183Z,970.28
2019-01-31T09:03:01.406Z,970.24
2019-01-31T09:04:01.399Z,970.27
2019-01-31T09:05:01.376Z,970.27
2019-01-31T09:06:01.390Z,970.25
2019-01-31T09:07:01.413Z,970.19
2019-01-31T09:08:01.355Z,970.25
2019-01-31T09:09:01.347Z,970.22
2019-01-31T09:10:01.331Z,970.24
2019-01-31T09:11:01.332Z,970.24
2019-01-31T09:12:02.238Z,970.19
2019-01-31T09:13:01.308Z,970.16
2019-01-31T09:14:01.289Z,970.14
2019-01-31T09:15:02.200Z,970.15
2019-01-31T09:16:01.268Z,970.18
2019-01-31T09:17:01.246Z,970.15
2019-01-31T09:18:01.305Z,970.12
2019-01-31T09:19:03.991Z,970.10
2019-01-31T09:20:01.247Z,970.13
2019-01-31T09:21:01.216Z,970.14
2019-01-31T09:22:01.245Z,970.12
2019-01-31T09:23:01.206Z,970.12
2019-01-31T09:24:01.195Z,970.12
2019-01-31T09:25:01.175Z,970.11
2019-01-31T09:26:01.180Z,970.19
2019-01-31T09:27:01.151Z,970.11
2019-01-31T09:28:01.166Z,970.07
2019-01-31T09:29:01.149Z,970.10
2019-01-31T09:30:01.141Z,970.07
2019-01-31T09:31:01.107Z,970.10
2019-01-31T09:32:01.104Z,970.08
2019-01-31T09:33:01.162Z,970.04
2019-01-31T09:34:01.091Z,970.02
2019-01-31T09:35:01.075Z,969.98
2019-01-31T09:36:01.056Z,970.00
2019-01-31T09:37:01.148Z,970.00
2019-01-31T09:38:01.061Z,969.99
2019-01-31T09:39:01.077Z,970.00
2019-01-31T09:40:01.019Z,969.98
2019-01-31T09:41:01.017Z,970.00
2019-01-31T09:42:00.994Z,970.00
2019-01-31T09:43:01.055Z,970.02
2019-01-31T09:44:00.997Z,970.01
2019-01-31T09:45:01.015Z,970.01
2019-01-31T09:46:01.005Z,970.03
2019-01-31T09:47:00.966Z,970.00
2019-01-31T09:48:00.940Z,970.01
2019-01-31T09:49:00.947Z,970.01
2019-01-31T09:50:00.948Z,970.01
2019-01-31T09:51:00.896Z,970.01
2019-01-31T09:52:00.883Z,970.03
2019-01-31T09:53:00.921Z,970.00
2019-01-31T09:54:00.876Z,970.01
2019-01-31T09:55:00.854Z,970.06
2019-01-31T09:56:00.877Z,970.03
2019-01-31T09:57:00.843Z,970.06
2019-01-31T09:58:00.869Z,970.02
2019-01-31T09:59:00.824Z,970.03
2019-01-31T10:00:00.806Z,970.03
2019-01-31T10:01:00.795Z,970.01
2019-01-31T10:02:00.793Z,970.01
2019-01-31T10:03:00.837Z,969.96
2019-01-31T10:04:00.809Z,969.91
2019-01-31T10:05:00.871Z,969.91
2019-01-31T10:06:00.745Z,969.90
2019-01-31T10:07:02.996Z,969.91
2019-01-31T10:08:00.740Z,969.92
2019-01-31T10:09:00.721Z,969.89
2019-01-31T10:10:00.750Z,969.89
2019-01-31T10:11:00.750Z,969.88
2019-01-31T10:12:00.677Z,969.88
2019-01-31T10:13:00.772Z,969.88
2019-01-31T10:14:00.666Z,969.86
2019-01-31T10:15:00.746Z,969.90
2019-01-31T10:16:00.718Z,969.88
2019-01-31T10:17:00.704Z,969.85
2019-01-31T10:18:00.685Z,969.92
2019-01-31T10:19:00.618Z,969.88
2019-01-31T10:20:00.588Z,969.84
2019-01-31T10:21:00.583Z,969.85
2019-01-31T10:22:00.660Z,969.82
2019-01-31T10:23:00.610Z,969.85
2019-01-31T10:24:00.618Z,969.86
2019-01-31T10:25:00.643Z,969.82
2019-01-31T10:26:00.571Z,969.83
2019-01-31T10:27:00.541Z,969.88
2019-01-31T10:28:00.516Z,969.82
2019-01-31T10:29:02.082Z,969.82
2019-01-31T10:30:00.506Z,969.79
2019-01-31T10:31:00.522Z,969.77
2019-01-31T10:32:00.483Z,969.78
2019-01-31T10:33:00.470Z,969.81
2019-01-31T10:34:00.502Z,969.81
2019-01-31T10:35:00.454Z,969.77
2019-01-31T10:36:00.422Z,969.79
2019-01-31T10:37:00.484Z,969.79
2019-01-31T10:38:00.455Z,969.77
2019-01-31T10:39:00.431Z,969.77
2019-01-31T10:40:00.391Z,969.77
2019-01-31T10:41:00.404Z,969.73
2019-01-31T10:42:00.360Z,969.79
2019-01-31T10:43:00.377Z,969.72
2019-01-31T10:44:00.338Z,969.77
2019-01-31T10:45:00.399Z,969.71
2019-01-31T10:46:00.321Z,969.69
2019-01-31T10:47:00.376Z,969.71
2019-01-31T10:48:00.716Z,969.69
2019-01-31T10:49:00.326Z,969.69
2019-01-31T10:50:00.283Z,969.69
2019-01-31T10:51:00.310Z,969.70
2019-01-31T10:52:00.307Z,969.66
2019-01-31T10:53:00.271Z,969.64
2019-01-31T10:54:00.253Z,969.64
2019-01-31T10:55:00.249Z,969.61
2019-01-31T10:56:00.224Z,969.61
2019-01-31T10:57:00.232Z,969.62
2019-01-31T10:58:00.263Z,969.64
2019-01-31T10:59:00.196Z,969.65
2019-01-31T11:00:00.302Z,969.55
2019-01-31T11:01:00.164Z,969.55
2019-01-31T11:02:00.227Z,969.55
2019-01-31T11:03:00.170Z,969.54
2019-01-31T11:04:00.143Z,969.54
2019-01-31T11:05:00.189Z,969.56
2019-01-31T11:06:00.191Z,969.51
2019-01-31T11:07:00.110Z,969.52
2019-01-31T11:08:00.162Z,969.48
2019-01-31T11:09:00.078Z,969.51
2019-01-31T11:10:00.143Z,969.52
2019-01-31T11:11:00.097Z,969.52
2019-01-31T11:12:00.135Z,969.47
2019-01-31T11:13:01.019Z,969.48
2019-01-31T11:14:00.103Z,969.44
2019-01-31T11:15:00.043Z,969.44
2019-01-31T11:16:00.133Z,969.44
2019-01-31T11:17:00.234Z,969.48
2019-01-31T11:18:00.065Z,969.46
2019-01-31T11:19:11.783Z,969.41
2019-01-31T11:20:01.104Z,969.46
2019-01-31T11:20:59.978Z,969.47
2019-01-31T11:22:00.022Z,969.46
2019-01-31T11:22:59.927Z,969.44
2019-01-31T11:23:59.981Z,969.42
2019-01-31T11:24:59.919Z,969.38
2019-01-31T11:25:59.923Z,969.37
2019-01-31T11:27:00.013Z,969.39
2019-01-31T11:27:59.899Z,969.37
2019-01-31T11:28:59.908Z,969.37
2019-01-31T11:29:59.856Z,969.35
2019-01-31T11:30:59.847Z,969.36
2019-01-31T11:32:00.674Z,969.37
2019-01-31T11:32:59.905Z,969.39
2019-01-31T11:33:59.828Z,969.38
2019-01-31T11:34:59.801Z,969.36
2019-01-31T11:35:59.877Z,969.33
2019-01-31T11:36:59.809Z,969.30
2019-01-31T11:37:59.877Z,969.24
2019-01-31T11:39:00.193Z,969.26
2019-01-31T11:39:59.796Z,969.22
2019-01-31T11:40:59.820Z,969.29
2019-01-31T11:41:59.737Z,969.25
2019-01-31T11:42:59.749Z,969.25
2019-01-31T11:43:59.737Z,969.24
2019-01-31T11:44:59.738Z,969.22
2019-01-31T11:45:59.703Z,969.23
2019-01-31T11:46:59.681Z,969.22
2019-01-31T11:47:59.718Z,969.24
2019-01-31T11:48:59.659Z,969.24
2019-01-31T11:49:59.666Z,969.23
2019-01-31T11:50:59.633Z,969.18
2019-01-31T11:51:59.624Z,969.20
2019-01-31T11:52:59.653Z,969.18
2019-01-31T11:53:59.621Z,969.20
2019-01-31T11:54:59.615Z,969.16
2019-01-31T11:55:59.614Z,969.19
2019-01-31T11:57:05.500Z,969.21
2019-01-31T11:58:00.575Z,969.20
2019-01-31T11:58:59.601Z,969.18
2019-01-31T11:59:59.539Z,969.17
2019-01-31T12:00:59.531Z,969.16
2019-01-31T12:01:59.517Z,969.18
2019-01-31T12:02:59.521Z,969.18
2019-01-31T12:03:59.515Z,969.19
2019-01-31T12:04:59.525Z,969.13
2019-01-31T12:05:59.478Z,969.15
2019-01-31T12:06:59.466Z,969.15
2019-01-31T12:07:59.455Z,969.17
2019-01-31T12:08:59.465Z,969.11
2019-01-31T12:09:59.440Z,969.16
2019-01-31T12:10:59.442Z,969.16
2019-01-31T12:11:59.413Z,969.13
2019-01-31T12:12:59.416Z,969.08
2019-01-31T12:13:59.420Z,969.10
2019-01-31T12:14:59.389Z,969.12
2019-01-31T12:15:59.377Z,969.08
2019-01-31T12:16:59.380Z,969.11
2019-01-31T12:17:59.364Z,969.11
2019-01-31T12:18:59.366Z,969.18
2019-01-31T12:19:59.339Z,969.12
2019-01-31T12:20:59.323Z,969.14
2019-01-31T12:21:59.310Z,969.13
2019-01-31T12:22:59.332Z,969.13
2019-01-31T12:23:59.349Z,969.14
2019-01-31T12:24:59.299Z,969.12
2019-01-31T12:25:59.262Z,969.11
2019-01-31T12:26:59.266Z,969.10
2019-01-31T12:27:59.263Z,969.13